Kings Worthy, United Kingdom
Current Conditions -  °F | °C
As of 8:50 AM on Tuesday 21 Oct 2014 (Local Time) from EGVP Reporting Station
Scattered Clouds Scattered Clouds  
Wind Chill: 55°   Ceiling: Unl
Heat Index: 55°   Visibility: 6mi
Dew Point: 48°   Wind: 20mph
Humidity: 77%   Direction: 270°W
Pressure: 29.62"   Gusts: 32mph
Location:  51.09°N, 1.3°W
Report Text: EGVP 210750Z 27017G28KT 9999 FEW018 SCT060 13/09 Q1003 RERA BLU NOSIG
Loading
Personal Weather Stations






























Interactive Weather Map
Tropical Storm Tracking
New forecast layout! Learn more

10-Day Weather Forecast

Advertisements
Track Severe Weather on mobile